createdAt,value
2023-03-06T00:01:38.326Z,98366.50
2023-03-06T00:04:11.471Z,98362.56
2023-03-06T00:06:44.355Z,98362.16
2023-03-06T00:09:19.097Z,98363.72
2023-03-06T00:11:52.122Z,98353.09
2023-03-06T00:14:25.321Z,98351.97
2023-03-06T00:16:58.373Z,98355.50
2023-03-06T00:19:32.384Z,98351.53
2023-03-06T00:22:05.443Z,98355.84
2023-03-06T00:24:39.776Z,98347.22
2023-03-06T00:27:12.656Z,98344.06
2023-03-06T00:29:45.615Z,98344.81
2023-03-06T00:32:18.858Z,98341.63
2023-03-06T00:34:52.310Z,98339.69
2023-03-06T00:37:26.442Z,98335.00
2023-03-06T00:40:00.905Z,98330.59
2023-03-06T00:42:33.735Z,98320.06
2023-03-06T00:45:07.574Z,98323.91
2023-03-06T00:47:40.538Z,98319.28
2023-03-06T00:50:13.465Z,98318.13
2023-03-06T00:52:46.359Z,98316.06
2023-03-06T00:55:20.553Z,98319.22
2023-03-06T00:57:54.148Z,98311.75
2023-03-06T01:00:27.108Z,98309.38
2023-03-06T01:02:59.928Z,98308.97
2023-03-06T01:05:35.969Z,98307.47
2023-03-06T01:08:09.614Z,98306.69
2023-03-06T01:10:43.911Z,98297.56
2023-03-06T01:13:16.867Z,98291.72
2023-03-06T01:15:50.006Z,98297.25
2023-03-06T01:18:22.878Z,98283.50
2023-03-06T01:20:55.822Z,98277.13
2023-03-06T01:23:28.726Z,98274.81
2023-03-06T01:26:03.008Z,98267.75
2023-03-06T01:28:37.428Z,98262.25
2023-03-06T01:31:11.009Z,98268.13
2023-03-06T01:33:43.856Z,98257.81
2023-03-06T01:36:16.930Z,98257.88
2023-03-06T01:38:50.949Z,98251.19
2023-03-06T01:41:25.202Z,98254.34
2023-03-06T01:43:58.263Z,98264.59
2023-03-06T01:46:38.825Z,98256.69
2023-03-06T01:49:20.033Z,98255.09
2023-03-06T01:51:56.268Z,98249.22
2023-03-06T01:54:32.570Z,98252.75
2023-03-06T01:57:10.444Z,98239.38
2023-03-06T01:59:44.190Z,98241.38
2023-03-06T02:02:17.702Z,98242.50
2023-03-06T02:04:50.659Z,98238.50
2023-03-06T02:07:24.526Z,98233.38
2023-03-06T02:09:57.868Z,98240.19
2023-03-06T02:12:32.357Z,98225.63
2023-03-06T02:15:06.201Z,98222.47
2023-03-06T02:17:39.087Z,98213.84
2023-03-06T02:20:17.243Z,98205.59
2023-03-06T02:22:58.259Z,98217.00
2023-03-06T02:25:38.891Z,98213.00
2023-03-06T02:28:14.794Z,98209.03
2023-03-06T02:30:49.576Z,98202.69
2023-03-06T02:33:26.043Z,98210.25
2023-03-06T02:36:01.178Z,98199.16
2023-03-06T02:38:38.815Z,98196.13
2023-03-06T02:41:13.376Z,98195.97
2023-03-06T02:43:49.768Z,98190.09
2023-03-06T02:46:23.034Z,98183.88
2023-03-06T02:48:56.070Z,98179.94
2023-03-06T02:51:29.064Z,98175.13
2023-03-06T02:54:01.964Z,98178.41
2023-03-06T02:56:36.408Z,98167.38
2023-03-06T02:59:09.662Z,98172.91
2023-03-06T03:01:42.773Z,98165.00
2023-03-06T03:04:15.921Z,98176.03
2023-03-06T03:06:49.038Z,98168.47
2023-03-06T03:09:22.166Z,98162.59
2023-03-06T03:11:56.791Z,98161.84
2023-03-06T03:14:30.066Z,98158.66
2023-03-06T03:17:03.009Z,98163.38
2023-03-06T03:19:36.162Z,98161.38
2023-03-06T03:22:09.007Z,98165.72
2023-03-06T03:24:42.680Z,98161.06
2023-03-06T03:27:17.610Z,98157.47
2023-03-06T03:29:50.489Z,98146.94
2023-03-06T03:32:25.027Z,98148.88
2023-03-06T03:34:58.440Z,98143.75
2023-03-06T03:37:32.448Z,98151.31
2023-03-06T03:40:07.025Z,98145.78
2023-03-06T03:42:41.403Z,98135.44
2023-03-06T03:45:15.618Z,98137.06
2023-03-06T03:47:49.062Z,98130.81
2023-03-06T03:50:21.913Z,98128.50
2023-03-06T03:52:54.713Z,98142.97
2023-03-06T03:55:27.932Z,98130.78
2023-03-06T03:58:02.232Z,98126.06
2023-03-06T04:00:35.284Z,98129.19
2023-03-06T04:03:16.152Z,98124.13
2023-03-06T04:05:54.180Z,98125.75
2023-03-06T04:08:28.376Z,98111.94
2023-03-06T04:11:03.026Z,98107.59
2023-03-06T04:13:38.761Z,98109.91
2023-03-06T04:16:12.003Z,98110.69
2023-03-06T04:18:45.976Z,98103.66
2023-03-06T04:21:18.849Z,98104.06
2023-03-06T04:23:51.750Z,98104.91
2023-03-06T04:26:24.619Z,98106.84
2023-03-06T04:28:59.386Z,98099.72
2023-03-06T04:31:32.208Z,98096.56
2023-03-06T04:34:05.265Z,98109.53
2023-03-06T04:36:41.494Z,98095.72
2023-03-06T04:39:17.171Z,98098.13
2023-03-06T04:41:50.138Z,98092.13
2023-03-06T04:44:24.669Z,98095.09
2023-03-06T04:46:57.664Z,98096.56
2023-03-06T04:49:30.906Z,98089.09
2023-03-06T04:52:03.960Z,98084.31
2023-03-06T04:54:37.142Z,98079.25
2023-03-06T04:57:11.232Z,98078.81
2023-03-06T04:59:46.177Z,98078.09
2023-03-06T05:02:19.663Z,98077.72
2023-03-06T05:04:52.437Z,98075.72
2023-03-06T05:07:25.263Z,98073.81
2023-03-06T05:09:58.061Z,98068.28
2023-03-06T05:12:31.122Z,98069.06
2023-03-06T05:15:06.997Z,98064.00
2023-03-06T05:17:40.369Z,98059.69
2023-03-06T05:20:15.425Z,98056.06
2023-03-06T05:22:48.267Z,98065.59
2023-03-06T05:25:21.444Z,98063.94
2023-03-06T05:27:54.175Z,98054.53
2023-03-06T05:30:28.369Z,98054.09
2023-03-06T05:33:01.296Z,98056.13
2023-03-06T05:35:34.222Z,98052.59
2023-03-06T05:38:07.082Z,98048.25
2023-03-06T05:40:41.588Z,98045.13
2023-03-06T05:43:14.374Z,98042.78
2023-03-06T05:45:50.395Z,98044.69
2023-03-06T05:48:23.312Z,98053.44
2023-03-06T05:50:56.987Z,98043.91
2023-03-06T05:53:30.714Z,98049.06
2023-03-06T05:56:06.255Z,98044.69
2023-03-06T05:58:39.370Z,98043.94
2023-03-06T06:01:16.104Z,98054.97
2023-03-06T06:03:49.177Z,98051.38
2023-03-06T06:06:22.331Z,98056.09
2023-03-06T06:08:55.548Z,98054.53
2023-03-06T06:11:28.574Z,98061.25
2023-03-06T06:14:01.636Z,98065.19
2023-03-06T06:16:35.779Z,98055.72
2023-03-06T06:19:08.826Z,98060.09
2023-03-06T06:21:41.775Z,98056.16
2023-03-06T06:24:15.705Z,98055.72
2023-03-06T06:26:51.145Z,98051.41
2023-03-06T06:29:24.976Z,98059.25
2023-03-06T06:31:59.956Z,98060.03
2023-03-06T06:34:32.877Z,98052.13
2023-03-06T06:37:05.823Z,98058.09
2023-03-06T06:39:38.630Z,98058.06
2023-03-06T06:42:29.409Z,98052.13
2023-03-06T06:45:05.551Z,98063.16
2023-03-06T06:47:41.700Z,98052.91
2023-03-06T06:50:15.328Z,98058.06
2023-03-06T06:52:48.176Z,98054.00
2023-03-06T06:55:21.692Z,98055.63
2023-03-06T06:57:54.812Z,98056.44
2023-03-06T07:00:28.219Z,98054.81
2023-03-06T07:03:02.364Z,98047.75
2023-03-06T07:05:35.456Z,98050.09
2023-03-06T07:08:08.489Z,98058.78
2023-03-06T07:10:41.350Z,98067.81
2023-03-06T07:13:14.116Z,98060.31
2023-03-06T07:15:47.326Z,98061.47
2023-03-06T07:18:21.621Z,98069.00
2023-03-06T07:20:55.306Z,98060.69
2023-03-06T07:23:31.970Z,98062.56
2023-03-06T07:26:05.377Z,98066.41
2023-03-06T07:28:51.604Z,98067.16
2023-03-06T07:31:28.297Z,98060.28
2023-03-06T07:34:04.798Z,98065.00
2023-03-06T07:36:39.674Z,98064.69
2023-03-06T07:39:12.452Z,98076.09
2023-03-06T07:41:45.270Z,98077.56
2023-03-06T07:44:17.995Z,98075.31
2023-03-06T07:46:50.875Z,98074.81
2023-03-06T07:49:25.041Z,98068.97
2023-03-06T07:51:57.979Z,98078.44
2023-03-06T07:54:32.597Z,98076.34
2023-03-06T07:57:05.537Z,98079.09
2023-03-06T07:59:38.346Z,98081.25
2023-03-06T08:02:12.102Z,98080.69
2023-03-06T08:04:46.359Z,98078.81
2023-03-06T08:07:19.162Z,98085.84
2023-03-06T08:09:52.243Z,98084.53
2023-03-06T08:12:27.498Z,98085.03
2023-03-06T08:15:00.260Z,98087.88
2023-03-06T08:17:33.019Z,98087.63
2023-03-06T08:20:10.324Z,98088.16
2023-03-06T08:22:43.241Z,98097.03
2023-03-06T08:25:16.087Z,98094.66
2023-03-06T08:27:48.846Z,98089.28
2023-03-06T08:30:22.689Z,98089.63
2023-03-06T08:32:55.521Z,98090.78
2023-03-06T08:35:30.072Z,98097.78
2023-03-06T08:38:02.890Z,98092.53
2023-03-06T08:40:36.185Z,98097.66
2023-03-06T08:43:12.989Z,98098.72
2023-03-06T08:45:46.873Z,98094.78
2023-03-06T08:48:19.835Z,98095.28
2023-03-06T08:50:53.994Z,98097.53
2023-03-06T08:53:41.787Z,98090.63
2023-03-06T08:56:18.083Z,98099.03
2023-03-06T08:58:51.570Z,98101.91
2023-03-06T09:01:25.805Z,98090.63
2023-03-06T09:04:01.171Z,98094.81
2023-03-06T09:06:37.921Z,98098.53
2023-03-06T09:09:10.756Z,98095.09
2023-03-06T09:11:43.571Z,98094.28
2023-03-06T09:14:16.404Z,98088.84
2023-03-06T09:16:49.273Z,98088.81
2023-03-06T09:19:22.187Z,98098.84
2023-03-06T09:21:57.806Z,98095.16
2023-03-06T09:24:30.725Z,98097.09
2023-03-06T09:27:03.798Z,98095.41
2023-03-06T09:29:36.651Z,98090.25
2023-03-06T09:32:11.794Z,98100.38
2023-03-06T09:34:44.938Z,98099.75
2023-03-06T09:37:19.788Z,98103.31
2023-03-06T09:39:52.616Z,98099.22
2023-03-06T09:42:25.673Z,98114.59
2023-03-06T09:45:01.377Z,98104.72
2023-03-06T09:47:46.157Z,98097.53
2023-03-06T09:50:28.402Z,98106.25
2023-03-06T09:53:29.675Z,98109.06
2023-03-06T09:56:06.897Z,98114.22
2023-03-06T09:58:45.302Z,98106.28
2023-03-06T10:01:24.091Z,98101.28
2023-03-06T10:04:04.043Z,98101.56
2023-03-06T10:06:47.572Z,98096.75
2023-03-06T10:09:26.847Z,98096.22
2023-03-06T10:12:03.769Z,98105.16
2023-03-06T10:14:41.082Z,98103.41
2023-03-06T10:17:19.542Z,98112.84
2023-03-06T10:19:52.993Z,98107.69
2023-03-06T10:22:30.373Z,98112.56
2023-03-06T10:25:16.924Z,98109.50
2023-03-06T10:27:51.722Z,98106.59
2023-03-06T10:30:39.825Z,98111.63
2023-03-06T10:33:29.995Z,98103.47
2023-03-06T10:36:03.115Z,98099.38
2023-03-06T10:38:37.826Z,98102.91
2023-03-06T10:41:23.714Z,98106.69
2023-03-06T10:44:23.754Z,98102.78
2023-03-06T10:46:57.166Z,98098.97
2023-03-06T10:49:33.458Z,98101.47
2023-03-06T10:52:08.678Z,98108.06
2023-03-06T10:54:43.843Z,98103.16
2023-03-06T10:57:26.957Z,98109.25
2023-03-06T11:00:04.415Z,98105.25
2023-03-06T11:02:41.041Z,98101.19
2023-03-06T11:05:20.961Z,98086.28
2023-03-06T11:07:55.689Z,98085.06
2023-03-06T11:10:30.612Z,98079.25
2023-03-06T11:13:20.410Z,98081.19
2023-03-06T11:15:59.421Z,98074.59
2023-03-06T11:18:37.104Z,98080.66
2023-03-06T11:21:30.325Z,98076.94
2023-03-06T11:24:08.669Z,98078.41
2023-03-06T11:26:51.128Z,98075.94
2023-03-06T11:29:36.824Z,98082.72
2023-03-06T11:32:16.024Z,98079.28
2023-03-06T11:34:52.181Z,98076.09
2023-03-06T11:37:43.965Z,98069.34
2023-03-06T11:40:24.726Z,98081.09
2023-03-06T11:43:03.910Z,98064.41
2023-03-06T11:45:45.956Z,98049.38
2023-03-06T11:48:26.184Z,98049.00
2023-03-06T11:51:07.444Z,98048.69
2023-03-06T11:53:41.923Z,98039.22
2023-03-06T11:56:31.142Z,98042.25
2023-03-06T11:59:30.138Z,98039.16
2023-03-06T12:02:16.349Z,98037.63
2023-03-06T12:04:56.873Z,98037.38
2023-03-06T12:07:31.253Z,98041.47
2023-03-06T12:10:14.549Z,98045.69
2023-03-06T12:13:05.721Z,98032.69
2023-03-06T12:15:54.425Z,98027.88
2023-03-06T12:18:39.846Z,98029.50
2023-03-06T12:21:19.640Z,98028.03
2023-03-06T12:24:08.266Z,98036.94
2023-03-06T12:26:55.443Z,98035.31
2023-03-06T12:29:56.419Z,98042.53
2023-03-06T12:32:43.977Z,98036.75
2023-03-06T12:35:48.967Z,98019.28
2023-03-06T12:38:54.063Z,98008.41
2023-03-06T12:41:37.995Z,98011.41
2023-03-06T12:44:39.613Z,98023.19
2023-03-06T12:47:16.809Z,98016.16
2023-03-06T12:49:55.758Z,98018.44
2023-03-06T12:52:32.353Z,98017.00
2023-03-06T12:55:08.553Z,98012.97
2023-03-06T12:57:41.963Z,98016.72
2023-03-06T13:00:52.625Z,98017.22
2023-03-06T13:03:35.517Z,98008.97
2023-03-06T13:06:21.685Z,98015.94
2023-03-06T13:09:05.125Z,98010.13
2023-03-06T13:12:04.965Z,98012.00
2023-03-06T13:14:55.811Z,97996.00
2023-03-06T13:17:35.288Z,98005.38
2023-03-06T13:20:36.728Z,98006.41
2023-03-06T13:23:43.280Z,98000.28
2023-03-06T13:27:04.023Z,98007.88
2023-03-06T13:30:06.658Z,97999.44
2023-03-06T13:32:39.745Z,97995.97
2023-03-06T13:35:57.761Z,98009.72
2023-03-06T13:38:33.545Z,98001.25
2023-03-06T13:41:35.219Z,98003.78
2023-03-06T13:44:41.843Z,98007.69
2023-03-06T13:48:05.808Z,97999.75
2023-03-06T13:50:43.326Z,97996.94
2023-03-06T13:53:49.049Z,97988.72
2023-03-06T13:56:50.700Z,97999.09
2023-03-06T13:59:38.506Z,97985.66
2023-03-06T14:02:34.470Z,97978.94
2023-03-06T14:05:14.677Z,97980.53
2023-03-06T14:07:49.213Z,97971.44
2023-03-06T14:10:24.949Z,97983.56
2023-03-06T14:13:07.845Z,97979.47
2023-03-06T14:15:46.540Z,97976.66
2023-03-06T14:18:24.970Z,97968.50
2023-03-06T14:21:01.513Z,97969.28
2023-03-06T14:23:38.186Z,97970.16
2023-03-06T14:26:17.477Z,97976.38
2023-03-06T14:28:57.235Z,97971.97
2023-03-06T14:31:33.225Z,97968.41
2023-03-06T14:34:07.909Z,97969.19
2023-03-06T14:36:46.915Z,97988.06
2023-03-06T14:39:24.763Z,97976.16
2023-03-06T14:42:07.368Z,97976.44
2023-03-06T14:44:40.475Z,97975.03
2023-03-06T14:47:23.413Z,97958.94
2023-03-06T14:50:23.199Z,97967.84
2023-03-06T14:53:00.950Z,97969.19
2023-03-06T14:55:36.781Z,97977.22
2023-03-06T14:58:16.440Z,97972.94
2023-03-06T15:00:54.609Z,97975.31
2023-03-06T15:03:33.906Z,97966.38
2023-03-06T15:06:08.313Z,97964.56
2023-03-06T15:08:46.313Z,97961.75
2023-03-06T15:11:19.269Z,97975.19
2023-03-06T15:14:02.566Z,97977.44
2023-03-06T15:16:35.450Z,97977.13
2023-03-06T15:19:20.355Z,97981.94
2023-03-06T15:21:53.423Z,97970.38
2023-03-06T15:24:34.504Z,97965.94
2023-03-06T15:27:08.786Z,97978.28
2023-03-06T15:29:41.731Z,97966.88
2023-03-06T15:32:17.275Z,97975.75
2023-03-06T15:35:29.333Z,97969.50
2023-03-06T15:38:02.816Z,97982.41
2023-03-06T15:40:37.038Z,97974.94
2023-03-06T15:43:11.786Z,97983.47
2023-03-06T15:45:44.779Z,97971.06
2023-03-06T15:48:18.897Z,97974.50
2023-03-06T15:50:51.774Z,97986.09
2023-03-06T15:53:24.918Z,97976.47
2023-03-06T15:56:00.324Z,97979.38
2023-03-06T15:58:35.181Z,97983.28
2023-03-06T16:01:08.312Z,97986.06
2023-03-06T16:03:41.205Z,97980.47
2023-03-06T16:06:18.841Z,97978.41
2023-03-06T16:08:52.263Z,97975.03
2023-03-06T16:11:35.376Z,97970.94
2023-03-06T16:14:21.346Z,97978.34
2023-03-06T16:16:55.416Z,97976.00
2023-03-06T16:19:28.343Z,97975.09
2023-03-06T16:22:02.226Z,97965.63
2023-03-06T16:24:35.159Z,97966.16
2023-03-06T16:27:17.572Z,97965.41
2023-03-06T16:29:50.379Z,97973.50
2023-03-06T16:32:26.031Z,97973.16
2023-03-06T16:34:59.961Z,97973.78
2023-03-06T16:37:32.780Z,97967.38
2023-03-06T16:40:09.360Z,97970.59
2023-03-06T16:42:43.576Z,97978.38
2023-03-06T16:45:18.352Z,97973.78
2023-03-06T16:47:51.441Z,97974.19
2023-03-06T16:50:26.647Z,97979.66
2023-03-06T16:53:00.175Z,97975.97
2023-03-06T16:55:33.007Z,97971.34
2023-03-06T16:58:08.639Z,97978.41
2023-03-06T17:00:41.544Z,97972.94
2023-03-06T17:03:14.398Z,97979.69
2023-03-06T17:05:47.169Z,97981.38
2023-03-06T17:08:19.966Z,97986.09
2023-03-06T17:10:52.859Z,97984.50
2023-03-06T17:13:27.056Z,97994.78
2023-03-06T17:16:01.907Z,97996.84
2023-03-06T17:18:35.089Z,97998.19
2023-03-06T17:21:09.361Z,98000.59
2023-03-06T17:23:42.238Z,98007.00
2023-03-06T17:26:18.836Z,98009.59
2023-03-06T17:28:54.240Z,98005.25
2023-03-06T17:31:29.184Z,98009.63
2023-03-06T17:34:01.949Z,98010.06
2023-03-06T17:36:35.516Z,98015.59
2023-03-06T17:39:08.325Z,98020.31
2023-03-06T17:41:41.171Z,98023.66
2023-03-06T17:44:16.517Z,98012.38
2023-03-06T17:46:50.074Z,98023.16
2023-03-06T17:49:25.283Z,98019.16
2023-03-06T17:51:59.839Z,98019.66
2023-03-06T17:54:33.267Z,98017.03
2023-03-06T17:57:06.629Z,98017.84
2023-03-06T17:59:41.062Z,98017.84
2023-03-06T18:02:14.065Z,98023.16
2023-03-06T18:04:47.025Z,98022.81
2023-03-06T18:07:19.910Z,98019.66
2023-03-06T18:09:53.007Z,98015.09
2023-03-06T18:12:25.788Z,98025.72
2023-03-06T18:14:59.997Z,98025.78
2023-03-06T18:17:33.137Z,98026.66
2023-03-06T18:20:06.990Z,98031.56
2023-03-06T18:22:39.905Z,98027.38
2023-03-06T18:25:12.852Z,98026.56
2023-03-06T18:27:45.849Z,98032.66
2023-03-06T18:30:20.373Z,98027.56
2023-03-06T18:32:55.374Z,98021.44
2023-03-06T18:35:28.597Z,98030.69
2023-03-06T18:38:01.773Z,98026.44
2023-03-06T18:40:35.236Z,98020.47
2023-03-06T18:43:08.654Z,98017.22
2023-03-06T18:45:44.308Z,98024.44
2023-03-06T18:48:17.258Z,98024.03
2023-03-06T18:50:50.946Z,98023.31
2023-03-06T18:53:24.169Z,98024.94
2023-03-06T18:55:57.064Z,98018.59
2023-03-06T18:58:30.644Z,98022.88
2023-03-06T19:01:08.380Z,98027.22
2023-03-06T19:03:41.666Z,98020.88
2023-03-06T19:06:16.895Z,98020.47
2023-03-06T19:08:49.848Z,98021.69
2023-03-06T19:11:23.000Z,98015.38
2023-03-06T19:13:56.170Z,98011.00
2023-03-06T19:16:31.488Z,98021.31
2023-03-06T19:19:04.608Z,98011.75
2023-03-06T19:21:37.491Z,98006.81
2023-03-06T19:24:13.986Z,98020.09
2023-03-06T19:26:47.013Z,98015.09
2023-03-06T19:29:20.014Z,98016.97
2023-03-06T19:31:57.207Z,98009.03
2023-03-06T19:34:30.412Z,98012.31
2023-03-06T19:37:03.464Z,98020.09
2023-03-06T19:39:36.450Z,98018.59
2023-03-06T19:42:11.727Z,98018.31
2023-03-06T19:44:46.673Z,98009.44
2023-03-06T19:47:21.030Z,98015.41
2023-03-06T19:49:54.160Z,98028.09
2023-03-06T19:52:27.920Z,98015.91
2023-03-06T19:55:00.901Z,98004.31
2023-03-06T19:57:34.251Z,98012.28
2023-03-06T20:00:08.553Z,98006.81
2023-03-06T20:02:47.125Z,98006.75
2023-03-06T20:05:20.268Z,98004.63
2023-03-06T20:07:53.230Z,98008.38
2023-03-06T20:10:26.124Z,98004.09
2023-03-06T20:12:59.032Z,98006.47
2023-03-06T20:15:35.084Z,97999.56
2023-03-06T20:18:09.588Z,98005.56
2023-03-06T20:20:42.631Z,98003.91
2023-03-06T20:23:16.696Z,98007.63
2023-03-06T20:25:49.773Z,98006.38
2023-03-06T20:28:23.576Z,98005.56
2023-03-06T20:30:56.592Z,97996.53
2023-03-06T20:33:30.955Z,98000.53
2023-03-06T20:36:04.431Z,98007.13
2023-03-06T20:38:39.107Z,98002.81
2023-03-06T20:41:15.697Z,97996.53
2023-03-06T20:43:49.113Z,97993.66
2023-03-06T20:46:23.488Z,97996.94
2023-03-06T20:48:58.195Z,97999.25
2023-03-06T20:51:32.764Z,97997.56
2023-03-06T20:54:07.885Z,98003.28
2023-03-06T20:56:42.809Z,97997.25
2023-03-06T20:59:16.165Z,98007.53
2023-03-06T21:01:49.091Z,98001.59
2023-03-06T21:04:23.338Z,97994.75
2023-03-06T21:06:56.943Z,97993.66
2023-03-06T21:09:29.893Z,98004.31
2023-03-06T21:12:02.959Z,98005.16
2023-03-06T21:14:35.910Z,97999.38
2023-03-06T21:17:08.916Z,97997.50
2023-03-06T21:19:43.847Z,97986.47
2023-03-06T21:22:16.975Z,97992.59
2023-03-06T21:24:49.933Z,97980.03
2023-03-06T21:27:22.818Z,97973.13
2023-03-06T21:29:55.875Z,97972.13
2023-03-06T21:32:28.848Z,97977.38
2023-03-06T21:35:03.215Z,97971.22
2023-03-06T21:37:36.208Z,97971.75
2023-03-06T21:40:10.687Z,97965.09
2023-03-06T21:42:43.808Z,97973.41
2023-03-06T21:45:16.854Z,97968.09
2023-03-06T21:47:49.791Z,97968.06
2023-03-06T21:50:24.953Z,97969.91
2023-03-06T21:52:58.291Z,97962.44
2023-03-06T21:55:31.281Z,97973.03
2023-03-06T21:58:04.347Z,97970.72
2023-03-06T22:00:37.418Z,97968.75
2023-03-06T22:03:11.180Z,97960.91
2023-03-06T22:05:45.680Z,97962.16
2023-03-06T22:08:21.192Z,97956.09
2023-03-06T22:10:54.238Z,97957.97
2023-03-06T22:13:27.226Z,97953.06
2023-03-06T22:16:00.303Z,97949.56
2023-03-06T22:18:34.833Z,97953.06
2023-03-06T22:21:10.995Z,97943.56
2023-03-06T22:23:44.623Z,97944.78
2023-03-06T22:26:17.531Z,97949.28
2023-03-06T22:28:50.406Z,97934.84
2023-03-06T22:31:25.245Z,97937.59
2023-03-06T22:33:59.833Z,97929.00
2023-03-06T22:36:34.498Z,97940.16
2023-03-06T22:39:07.394Z,97929.16
2023-03-06T22:41:40.526Z,97933.69
2023-03-06T22:44:17.279Z,97934.19
2023-03-06T22:46:51.750Z,97934.50
2023-03-06T22:49:24.719Z,97935.75
2023-03-06T22:51:59.066Z,97921.50
2023-03-06T22:54:31.973Z,97922.66
2023-03-06T22:57:05.137Z,97917.22
2023-03-06T22:59:38.027Z,97927.00
2023-03-06T23:02:10.898Z,97930.53
2023-03-06T23:04:43.907Z,97922.28
2023-03-06T23:07:18.661Z,97922.00
2023-03-06T23:09:52.430Z,97933.63
2023-03-06T23:12:44.181Z,97930.66
2023-03-06T23:15:37.363Z,97928.22
2023-03-06T23:18:29.629Z,97918.84
2023-03-06T23:21:22.846Z,97920.69
2023-03-06T23:24:17.086Z,97923.44
2023-03-06T23:26:50.066Z,97921.66
2023-03-06T23:29:22.961Z,97918.47
2023-03-06T23:31:55.910Z,97917.56
2023-03-06T23:34:28.783Z,97918.75
2023-03-06T23:37:01.748Z,97907.53
2023-03-06T23:39:37.273Z,97905.28
2023-03-06T23:42:10.168Z,97907.72
2023-03-06T23:44:43.071Z,97901.16
2023-03-06T23:47:17.249Z,97910.22
2023-03-06T23:49:50.395Z,97906.25
2023-03-06T23:52:23.381Z,97903.50
2023-03-06T23:54:57.861Z,97896.19
2023-03-06T23:57:31.368Z,97887.13
